Time;durP1;ratioP1;P1;durP2;ratioP2;P2;SDS_P1;SDS_P2;PMS_P1;PMS_P2;Temp;Humidity;BMP_temperature;BMP_pressure;BME280_temperature;BME280_humidity;BME280_pressure;Samples;Min_cycle;Max_cycle;Signal;HPM_P1;HPM_P2
2022/09/05 00:04:44;;;;;;;5.40;4.68;;;;;;;17.16;72.32;101829.81;10503487;28;20032;-72
2022/09/05 00:10:22;;;;;;;9.43;5.30;;;;;;;17.06;72.36;101828.59;10502278;28;20028;-71
2022/09/05 00:15:54;;;;;;;4.22;3.88;;;;;;;16.95;72.37;101821.94;10504691;28;20123;-71
2022/09/05 00:21:02;;;;;;;4.88;4.10;;;;;;;16.86;71.90;101817.75;10502785;28;20032;-71
2022/09/05 00:26:18;;;;;;;6.55;4.90;;;;;;;16.80;72.00;101821.34;10502791;28;20484;-71
2022/09/05 00:31:25;;;;;;;9.25;4.45;;;;;;;16.68;71.94;101810.22;10485772;28;20341;-72
2022/09/05 00:36:45;;;;;;;4.47;4.07;;;;;;;16.63;71.84;101807.31;10503236;28;20028;-71
2022/09/05 00:41:48;;;;;;;5.30;4.72;;;;;;;16.62;71.91;101805.59;10471986;28;20032;-72
2022/09/05 00:47:14;;;;;;;9.07;5.05;;;;;;;16.53;71.83;101805.03;10506991;28;20095;-72
2022/09/05 00:52:19;;;;;;;7.50;4.60;;;;;;;16.45;71.52;101797.03;10486290;28;20037;-71
2022/09/05 00:57:44;;;;;;;4.53;4.20;;;;;;;16.34;71.67;101798.53;10525386;28;20036;-71
2022/09/05 01:03:09;;;;;;;4.70;4.00;;;;;;;16.27;71.90;101794.97;10502689;28;20024;-72
2022/09/05 01:08:22;;;;;;;4.38;3.97;;;;;;;16.28;71.58;101793.94;10501780;28;20036;-71
2022/09/05 01:13:41;;;;;;;6.40;3.78;;;;;;;16.22;71.63;101794.78;10500796;28;20348;-70
2022/09/05 01:18:48;;;;;;;4.13;3.83;;;;;;;16.15;71.43;101800.25;10482636;28;20028;-71
2022/09/05 01:24:00;;;;;;;7.05;4.38;;;;;;;16.10;71.69;101801.94;10500913;28;20040;-72
2022/09/05 01:29:17;;;;;;;6.03;4.53;;;;;;;16.04;72.10;101800.88;10499122;28;20027;-70
2022/09/05 01:34:26;;;;;;;5.47;4.57;;;;;;;16.04;72.07;101795.44;10499031;28;20058;-72
2022/09/05 01:39:48;;;;;;;10.73;3.67;;;;;;;15.98;71.92;101793.53;10497970;28;20043;-71
2022/09/05 01:44:55;;;;;;;10.00;5.97;;;;;;;15.97;72.16;101786.41;10499015;28;20111;-72
2022/09/05 01:50:15;;;;;;;5.00;4.60;;;;;;;16.00;73.31;101791.44;10480505;28;20107;-72
2022/09/05 01:55:29;;;;;;;7.78;4.70;;;;;;;16.04;72.46;101796.25;10498839;28;20025;-72
2022/09/05 02:00:48;;;;;;;4.57;3.70;;;;;;;15.99;72.93;101795.25;10499056;28;20040;-72
2022/09/05 02:06:10;;;;;;;7.80;5.03;;;;;;;16.01;72.57;101804.03;10497993;28;20028;-72
2022/09/05 02:11:11;;;;;;;7.93;5.18;;;;;;;16.06;73.62;101787.88;10499139;28;20150;-71
2022/09/05 02:16:16;;;;;;;10.98;6.10;;;;;;;16.12;73.63;101792.50;10480806;28;20485;-71
2022/09/05 02:21:37;;;;;;;6.80;5.10;;;;;;;16.11;73.79;101784.47;10496823;28;20364;-71
2022/09/05 02:26:56;;;;;;;6.15;5.55;;;;;;;16.04;74.17;101792.69;10498691;28;20036;-71
2022/09/05 02:32:12;;;;;;;7.90;5.32;;;;;;;16.10;74.05;101791.00;10498603;28;20032;-72
2022/09/05 02:37:29;;;;;;;5.77;5.30;;;;;;;16.13;74.34;101796.06;10479939;28;20360;-71
2022/09/05 02:42:38;;;;;;;6.35;5.78;;;;;;;16.10;74.35;101793.75;10497683;28;20094;-70
2022/09/05 02:47:50;;;;;;;5.72;5.22;;;;;;;16.08;74.77;101804.03;10496489;28;20036;-72
2022/09/05 02:52:51;;;;;;;9.20;5.07;;;;;;;16.07;74.60;101803.19;10479718;28;20063;-72
2022/09/05 02:58:23;;;;;;;11.02;5.22;;;;;;;16.10;74.59;101791.00;10480965;28;20067;-72
2022/09/05 03:03:36;;;;;;;7.90;5.68;;;;;;;16.06;74.37;101801.53;10478673;28;20043;-72
2022/09/05 03:08:43;;;;;;;8.57;5.55;;;;;;;16.04;75.28;101800.88;10504561;28;20081;-72
2022/09/05 03:14:14;;;;;;;7.40;5.75;;;;;;;16.00;75.25;101794.19;10505589;28;20048;-71
2022/09/05 03:19:33;;;;;;;9.13;5.75;;;;;;;15.97;75.12;101798.16;10505225;28;20082;-72
2022/09/05 03:24:48;;;;;;;5.95;5.32;;;;;;;15.92;75.49;101789.78;10504465;28;20028;-73
2022/09/05 03:29:57;;;;;;;6.80;6.10;;;;;;;15.94;75.75;101784.09;10503922;28;20031;-71
2022/09/05 03:35:21;;;;;;;6.13;5.50;;;;;;;16.00;77.04;101794.19;10503461;28;20490;-72
2022/09/05 03:40:28;;;;;;;6.80;6.03;;;;;;;16.06;77.64;101789.75;10502866;28;20024;-74
2022/09/05 03:45:45;;;;;;;22.75;7.00;;;;;;;16.09;77.64;101789.34;10504109;28;20460;-72
2022/09/05 03:51:30;;;;;;;12.93;6.38;;;;;;;16.05;77.75;101788.94;10486162;28;20545;-73
2022/09/05 03:56:37;;;;;;;9.68;8.07;;;;;;;16.11;77.81;101788.06;10474784;28;20460;-72
2022/09/05 04:01:45;;;;;;;8.55;6.78;;;;;;;16.12;78.86;101778.81;10503046;28;20040;-72
2022/09/05 04:06:59;;;;;;;11.52;6.50;;;;;;;16.16;82.00;101773.78;10485112;28;20028;-71
2022/09/05 04:12:08;;;;;;;7.65;6.70;;;;;;;16.18;81.99;101777.97;10485118;28;20470;-71
2022/09/05 04:17:28;;;;;;;13.00;8.10;;;;;;;16.20;85.11;101781.31;10483806;28;20025;-71
2022/09/05 04:23:06;;;;;;;9.60;6.80;;;;;;;16.26;84.50;101774.16;10501239;28;20048;-71
2022/09/05 04:28:21;;;;;;;9.18;7.78;;;;;;;16.28;83.77;101775.63;10502416;28;20036;-70
2022/09/05 04:33:42;;;;;;;11.40;8.75;;;;;;;16.33;84.00;101774.16;10502604;28;20086;-74
2022/09/05 04:38:43;;;;;;;9.35;7.25;;;;;;;16.35;81.38;101782.97;10483969;28;20059;-72
2022/09/05 04:43:45;;;;;;;19.20;8.43;;;;;;;16.39;81.14;101795.16;10500793;28;20028;-73
2022/09/05 04:49:05;;;;;;;12.45;8.73;;;;;;;16.35;83.31;101782.97;10501698;28;20102;-71
2022/09/05 04:54:28;;;;;;;12.98;7.63;;;;;;;16.48;81.87;101802.06;10482969;28;20020;-73
2022/09/05 04:59:32;;;;;;;14.00;9.35;;;;;;;16.50;82.29;101791.78;10500636;28;20028;-68
2022/09/05 05:04:32;;;;;;;8.93;7.00;;;;;;;16.53;82.41;101788.63;10499149;28;20436;-69
2022/09/05 05:09:35;;;;;;;10.95;8.18;;;;;;;16.60;83.01;101796.78;10482163;28;20028;-68
2022/09/05 05:14:52;;;;;;;9.35;6.88;;;;;;;16.61;83.80;101790.25;10481435;28;20174;-70
2022/09/05 05:20:27;;;;;;;7.45;6.55;;;;;;;16.67;84.23;101808.53;10482375;28;20064;-68
2022/09/05 05:25:29;;;;;;;8.57;7.22;;;;;;;16.73;84.00;101799.47;10499320;28;20020;-68
2022/09/05 05:30:31;;;;;;;10.00;7.15;;;;;;;16.78;85.88;101802.41;10500215;28;20029;-69
2022/09/05 05:35:33;;;;;;;11.38;8.00;;;;;;;16.91;85.20;101802.38;10481122;28;20412;-69
2022/09/05 05:40:33;;;;;;;8.95;8.05;;;;;;;16.98;87.37;101805.06;10500396;28;20028;-68
2022/09/05 05:45:33;;;;;;;6.63;6.00;;;;;;;17.20;83.25;101800.13;10499700;28;20028;-69
2022/09/05 05:50:56;;;;;;;14.32;8.38;;;;;;;17.44;83.28;101803.94;10497397;28;20037;-71
2022/09/05 05:56:03;;;;;;;11.00;7.13;;;;;;;17.79;82.80;101795.28;10497494;28;20046;-70
2022/09/05 06:01:30;;;;;;;13.70;7.65;;;;;;;18.56;81.31;101796.63;10497165;28;20031;-70
2022/09/05 06:06:58;;;;;;;8.77;7.20;;;;;;;19.16;80.25;101809.63;10468895;28;20047;-70
2022/09/05 06:12:05;;;;;;;17.52;7.40;;;;;;;20.35;77.46;101808.75;10480269;28;20036;-79
2022/09/05 06:17:15;;;;;;;6.88;6.18;;;;;;;20.43;76.35;101811.97;10481233;28;20040;-72
2022/09/05 06:22:27;;;;;;;11.23;7.03;;;;;;;21.17;73.06;101814.09;10498269;28;20103;-76
2022/09/05 06:27:58;;;;;;;31.85;6.10;;;;;;;21.45;72.18;101816.03;10497154;28;20084;-75
2022/09/05 06:33:04;;;;;;;8.43;6.10;;;;;;;21.38;70.62;101823.63;10479546;28;20053;-74
2022/09/05 06:38:36;;;;;;;7.10;6.10;;;;;;;21.80;70.11;101813.03;10500588;28;20436;-76
2022/09/05 06:44:00;;;;;;;7.13;5.20;;;;;;;22.39;69.04;101820.03;10488685;28;20090;-75
2022/09/05 06:49:18;;;;;;;5.85;4.90;;;;;;;23.09;67.40;101829.50;10488245;28;20060;-75
2022/09/05 06:54:32;;;;;;;7.55;5.55;;;;;;;23.83;65.74;101826.94;10487963;28;20028;-75
2022/09/05 07:00:03;;;;;;;13.50;6.57;;;;;;;24.11;61.01;101839.63;10505572;28;20099;-74
2022/09/05 07:05:19;;;;;;;6.05;5.45;;;;;;;25.34;60.36;101836.69;10505887;28;20025;-73
2022/09/05 07:10:26;;;;;;;7.32;4.55;;;;;;;25.63;59.39;101835.06;10504315;28;20029;-74
2022/09/05 07:15:48;;;;;;;5.53;4.28;;;;;;;25.22;60.29;101843.28;10503619;28;20364;-76
2022/09/05 07:20:54;;;;;;;4.50;4.10;;;;;;;24.31;61.85;101861.09;10503336;28;20021;-75
2022/09/05 07:25:55;;;;;;;5.68;3.60;;;;;;;23.86;63.03;101862.38;10473132;28;20480;-77
2022/09/05 07:31:01;;;;;;;4.55;3.65;;;;;;;23.61;63.16;101862.97;10490432;28;20056;-74
2022/09/05 07:36:08;;;;;;;3.05;2.85;;;;;;;23.60;62.68;101857.69;10486639;28;20102;-77
2022/09/05 07:41:20;;;;;;;6.47;3.13;;;;;;;23.59;61.36;101850.50;10470072;28;20193;-75
2022/09/05 07:46:23;;;;;;;6.20;2.97;;;;;;;23.71;60.25;101853.97;10504727;28;20078;-76
2022/09/05 07:51:25;;;;;;;3.88;3.00;;;;;;;24.44;57.91;101851.53;10503688;28;20124;-76
2022/09/05 07:56:47;;;;;;;4.68;2.63;;;;;;;25.81;51.96;101861.44;10485254;28;20369;-72
2022/09/05 08:01:48;;;;;;;3.38;1.98;;;;;;;26.42;46.53;101857.78;10485083;28;20078;-71
2022/09/05 08:06:51;;;;;;;4.35;2.35;;;;;;;27.48;44.81;101861.28;10486139;28;20056;-71
2022/09/05 08:11:53;;;;;;;8.52;2.22;;;;;;;27.89;44.24;101860.16;10417069;28;20053;-75
2022/09/05 08:16:53;;;;;;;7.60;1.90;;;;;;;26.65;46.03;101870.25;10469260;28;20047;-70
2022/09/05 08:21:54;;;;;;;7.03;2.30;;;;;;;26.03;50.45;101874.22;10467330;28;20035;-71
2022/09/05 08:27:08;;;;;;;3.42;1.95;;;;;;;25.70;49.15;101868.06;10484791;28;20039;-72
2022/09/05 08:32:12;;;;;;;2.35;2.25;;;;;;;25.34;47.91;101867.19;10501275;28;20419;-74
2022/09/05 08:37:17;;;;;;;3.67;2.30;;;;;;;25.90;45.80;101850.63;10500800;28;20090;-76
2022/09/05 08:42:33;;;;;;;2.42;2.22;;;;;;;26.31;45.97;101864.47;10501479;28;20028;-72
2022/09/05 08:47:54;;;;;;;3.53;2.40;;;;;;;28.25;42.55;101863.47;10501823;28;20111;-72
2022/09/05 08:53:10;;;;;;;9.55;2.83;;;;;;;29.72;39.92;101853.56;10502307;28;20033;-70
2022/09/05 08:58:23;;;;;;;2.17;2.08;;;;;;;29.93;37.78;101835.34;10502831;28;20029;-68
2022/09/05 09:03:28;;;;;;;3.75;3.45;;;;;;;28.93;38.51;101838.16;10483655;28;20043;-74
2022/09/05 09:09:17;;;;;;;2.87;2.17;;;;;;;28.28;40.15;101840.59;10482785;28;20033;-69
2022/09/05 09:15:01;;;;;;;5.43;2.00;;;;;;;28.01;40.40;101849.47;10473000;28;20114;-70
2022/09/05 09:20:09;;;;;;;3.55;2.50;;;;;;;27.46;41.23;101844.03;10481882;28;20380;-70
2022/09/05 09:25:13;;;;;;;2.22;2.08;;;;;;;27.43;42.79;101839.03;10499858;28;20035;-70
2022/09/05 09:30:14;;;;;;;3.60;2.50;;;;;;;28.21;41.87;101840.13;10498981;28;20117;-69
2022/09/05 09:35:44;;;;;;;9.93;2.42;;;;;;;29.03;39.40;101844.78;10500202;28;20052;-69
2022/09/05 09:40:47;;;;;;;2.90;2.33;;;;;;;28.54;39.96;101831.97;10482715;28;20490;-69
2022/09/05 09:46:08;;;;;;;4.57;3.30;;;;;;;29.95;40.23;101832.22;10499301;28;20052;-70
2022/09/05 09:51:45;;;;;;;2.50;2.17;;;;;;;30.51;35.80;101823.66;10480929;28;20037;-68
2022/09/05 09:57:10;;;;;;;2.15;1.98;;;;;;;31.23;37.48;101816.53;10498294;28;20032;-67
2022/09/05 10:02:32;;;;;;;10.70;3.15;;;;;;;32.27;33.52;101814.50;10498257;28;20439;-66
2022/09/05 10:07:53;;;;;;;3.20;2.70;;;;;;;31.96;35.20;101801.31;10497906;28;20035;-69
2022/09/05 10:13:12;;;;;;;3.97;2.00;;;;;;;31.87;35.66;101793.97;10479012;28;20058;-71
2022/09/05 10:18:12;;;;;;;12.15;2.47;;;;;;;32.08;35.53;101792.31;10446129;28;20037;-67
2022/09/05 10:23:40;;;;;;;2.45;2.28;;;;;;;32.68;33.79;101781.69;10454873;28;20488;-69
2022/09/05 10:29:05;;;;;;;3.08;2.63;;;;;;;33.03;32.40;101782.59;10423377;28;20032;-68
2022/09/05 10:34:19;;;;;;;2.40;2.20;;;;;;;32.94;33.08;101781.72;10427572;28;20381;-72
2022/09/05 10:39:24;;;;;;;6.47;2.42;;;;;;;33.01;32.77;101787.69;10423645;28;20028;-73
2022/09/05 10:44:40;;;;;;;3.20;1.63;;;;;;;33.20;31.40;101781.75;10457444;28;20135;-68
2022/09/05 10:49:46;;;;;;;2.58;2.38;;;;;;;32.69;31.43;101781.34;10421469;28;20033;-69
2022/09/05 10:54:55;;;;;;;2.35;2.25;;;;;;;31.49;32.75;101791.56;10421575;28;20037;-67
2022/09/05 11:00:00;;;;;;;6.18;2.30;;;;;;;31.52;33.84;101784.50;10438662;28;20036;-67
2022/09/05 11:05:19;;;;;;;2.00;1.90;;;;;;;33.44;31.64;101790.50;10421543;28;20029;-67
2022/09/05 11:10:23;;;;;;;2.25;2.13;;;;;;;33.81;32.52;101779.72;10422514;28;20040;-68
2022/09/05 11:15:38;;;;;;;3.10;2.75;;;;;;;34.11;31.87;101782.63;10436738;28;20041;-67
2022/09/05 11:21:07;;;;;;;6.43;2.38;;;;;;;33.58;32.87;101786.72;10437003;28;20033;-68
2022/09/05 11:26:24;;;;;;;2.03;1.83;;;;;;;32.33;32.58;101771.16;10459002;28;20420;-68
2022/09/05 11:31:36;;;;;;;2.10;2.00;;;;;;;32.20;32.88;101766.50;10444756;28;20079;-68
2022/09/05 11:36:43;;;;;;;2.97;2.78;;;;;;;32.72;32.62;101765.84;10430435;28;20116;-69
2022/09/05 11:42:28;;;;;;;2.13;2.03;;;;;;;33.46;31.74;101774.13;10427714;28;20060;-70
2022/09/05 11:47:43;;;;;;;2.30;2.13;;;;;;;33.81;31.70;101782.53;10445530;28;20036;-69
2022/09/05 13:21:31;;;;;;;1.70;1.60;;;;;;;31.88;34.99;101723.66;10492149;28;20372;-74
2022/09/05 13:26:41;;;;;;;4.93;2.63;;;;;;;32.37;35.18;101720.88;10492107;28;20058;-68
2022/09/05 13:31:43;;;;;;;5.63;1.95;;;;;;;32.25;34.96;101724.28;10261268;28;20053;-64
2022/09/05 13:58:06;;;;;;;4.75;3.60;;;;;;;30.78;37.83;101715.75;10619807;27;1244740;-73
2022/09/05 14:03:24;;;;;;;3.22;2.75;;;;;;;31.02;37.90;101704.28;10617343;27;20509;-70
2022/09/05 14:09:02;;;;;;;10.75;3.40;;;;;;;31.01;38.66;101700.63;10617420;27;20054;-69
2022/09/05 14:14:27;;;;;;;3.53;2.95;;;;;;;31.01;39.18;101697.84;10474758;27;20047;-72
2022/09/05 14:24:46;;;;;;;2.90;2.70;;;;;;;30.62;39.74;101690.06;10573880;28;20395;-73
2022/09/05 14:29:47;;;;;;;2.78;2.60;;;;;;;30.47;39.72;101693.19;10555550;28;20036;-73
2022/09/05 14:35:04;;;;;;;5.93;2.58;;;;;;;30.37;39.66;101690.63;10572919;28;20118;-74
2022/09/05 14:40:13;;;;;;;8.02;3.88;;;;;;;30.20;40.42;101691.28;10573677;28;20046;-73
2022/09/05 14:45:46;;;;;;;25.10;3.88;;;;;;;29.96;40.67;101683.06;10573059;28;20107;-73
2022/09/05 14:50:53;;;;;;;2.40;2.22;;;;;;;29.89;40.77;101678.72;10445146;28;20053;-72
2022/09/05 14:55:58;;;;;;;5.13;3.13;;;;;;;29.95;40.74;101673.03;10426861;28;20086;-74
2022/09/05 15:01:03;;;;;;;5.63;3.97;;;;;;;29.91;41.15;101661.66;10487115;28;20477;-73
2022/09/05 15:06:19;;;;;;;2.63;2.45;;;;;;;29.88;40.98;101671.47;10477388;28;20087;-72
2022/09/05 15:11:22;;;;;;;8.15;3.42;;;;;;;29.80;41.31;101658.25;10460270;28;20048;-73
2022/09/05 15:16:23;;;;;;;2.97;2.78;;;;;;;29.87;41.17;101661.47;10459658;28;20419;-72
2022/09/05 15:21:35;;;;;;;3.42;3.13;;;;;;;29.89;41.07;101656.38;10475650;28;20031;-73
2022/09/05 15:26:36;;;;;;;11.77;3.63;;;;;;;29.82;41.38;101643.97;10460403;28;20065;-73
2022/09/05 15:31:37;;;;;;;4.60;3.80;;;;;;;29.59;41.46;101648.59;10459754;28;20119;-74
2022/09/05 15:36:40;;;;;;;3.38;3.13;;;;;;;29.46;41.66;101649.41;10475638;28;20107;-73
2022/09/05 15:41:40;;;;;;;3.58;2.45;;;;;;;29.37;41.65;101655.66;10459380;28;20041;-73
2022/09/05 15:46:50;;;;;;;2.25;2.15;;;;;;;29.18;41.70;101649.31;10459692;28;20048;-74
2022/09/05 15:52:04;;;;;;;6.50;3.47;;;;;;;29.05;41.98;101652.88;10441457;28;20033;-71
2022/09/05 15:57:08;;;;;;;5.45;2.38;;;;;;;29.00;41.96;101650.13;10458030;28;20060;-73
2022/09/05 16:02:09;;;;;;;2.65;2.45;;;;;;;28.93;41.91;101640.19;10459577;28;20075;-74
2022/09/05 16:07:09;;;;;;;3.05;2.75;;;;;;;28.81;41.92;101633.44;10474629;28;20449;-73
2022/09/05 16:12:11;;;;;;;2.67;2.47;;;;;;;28.76;42.10;101639.09;10457856;28;20044;-73
2022/09/05 16:17:17;;;;;;;2.50;2.30;;;;;;;28.70;41.88;101641.13;10456599;28;20468;-72
2022/09/05 16:22:27;;;;;;;5.18;3.38;;;;;;;28.61;42.13;101634.59;10457884;28;20396;-73
2022/09/05 16:27:40;;;;;;;3.33;2.97;;;;;;;28.32;42.63;101616.03;10457326;28;20039;-72
2022/09/05 16:32:41;;;;;;;4.22;2.83;;;;;;;28.23;42.98;101620.59;10457256;28;20055;-73
2022/09/05 16:37:45;;;;;;;3.17;2.88;;;;;;;27.92;43.67;101631.28;10456489;28;20413;-72
2022/09/05 16:42:45;;;;;;;10.40;3.78;;;;;;;27.73;43.88;101620.09;10456765;28;20024;-72
2022/09/05 16:48:23;;;;;;;11.00;3.53;;;;;;;27.53;44.38;101630.31;10457574;28;20055;-74
2022/09/05 16:53:40;;;;;;;4.30;3.83;;;;;;;27.24;45.05;101626.72;10456111;28;20495;-73
2022/09/05 16:58:51;;;;;;;7.97;2.97;;;;;;;26.79;48.30;101625.94;10455849;28;20086;-74
2022/09/05 17:04:16;;;;;;;10.48;3.50;;;;;;;26.47;46.71;101627.25;10472252;28;20399;-72
2022/09/05 17:09:22;;;;;;;3.80;3.53;;;;;;;26.02;48.68;101615.25;10445065;28;20041;-72
2022/09/05 17:14:23;;;;;;;7.13;4.28;;;;;;;25.75;48.33;101615.63;10456787;28;20040;-73
2022/09/05 17:19:32;;;;;;;4.70;4.25;;;;;;;25.43;48.49;101618.72;10472373;28;20477;-73
2022/09/05 17:24:33;;;;;;;4.78;4.30;;;;;;;25.22;48.56;101626.25;10438654;28;20029;-73
2022/09/05 17:29:52;;;;;;;4.63;4.22;;;;;;;24.99;48.73;101620.13;10454588;28;20099;-73
2022/09/05 17:34:56;;;;;;;4.43;4.13;;;;;;;24.78;49.17;101627.56;10454705;28;20485;-73
2022/09/05 17:40:23;;;;;;;4.13;3.83;;;;;;;24.58;49.82;101620.09;10455893;28;20468;-73
2022/09/05 17:45:25;;;;;;;13.73;4.90;;;;;;;24.48;49.62;101624.78;10457538;28;20029;-73
2022/09/05 17:50:25;;;;;;;7.53;4.88;;;;;;;24.32;49.94;101613.63;10438000;28;20086;-73
2022/09/05 17:55:43;;;;;;;12.50;4.97;;;;;;;24.22;50.78;101613.59;10455072;28;20446;-72
2022/09/05 18:00:47;;;;;;;5.18;4.78;;;;;;;24.13;50.32;101599.44;10455821;28;20065;-73
2022/09/05 18:05:53;;;;;;;4.13;3.67;;;;;;;24.03;50.55;101596.66;10455775;28;20037;-73
2022/09/05 18:10:59;;;;;;;10.38;5.07;;;;;;;23.88;50.78;101596.59;10455287;28;20387;-72
2022/09/05 18:16:00;;;;;;;7.20;5.10;;;;;;;23.86;51.33;101621.72;10455377;28;20532;-73
2022/09/05 18:21:03;;;;;;;12.35;4.93;;;;;;;23.87;52.78;101628.13;10455099;28;20057;-74
2022/09/05 18:26:10;;;;;;;6.93;5.22;;;;;;;23.84;54.05;101640.56;10455108;28;20037;-74
2022/09/05 18:31:35;;;;;;;12.73;5.88;;;;;;;23.68;55.80;101663.66;10453854;28;20041;-75
2022/09/05 18:36:36;;;;;;;8.30;5.63;;;;;;;23.14;59.99;101680.38;10395584;28;20072;-74
2022/09/05 18:41:37;;;;;;;16.88;6.15;;;;;;;21.87;64.29;101718.28;10457103;28;20066;-72
2022/09/05 18:46:43;;;;;;;16.48;9.55;;;;;;;20.65;91.21;101848.00;10462168;28;20562;-68
2022/09/05 18:51:57;;;;;;;7.93;6.50;;;;;;;19.78;100.00;101864.28;10444637;28;20479;-66
2022/09/05 18:56:57;;;;;;;8.18;4.55;;;;;;;19.02;100.00;101871.28;10460557;28;20048;-66
2022/09/05 19:02:00;;;;;;;6.30;4.95;;;;;;;18.77;100.00;101857.63;10462059;28;20040;-68
2022/09/05 19:07:07;;;;;;;6.10;4.47;;;;;;;18.59;95.61;101870.22;10455052;28;20510;-66
2022/09/05 19:12:09;;;;;;;7.90;5.25;;;;;;;18.70;87.15;101862.34;10541805;28;20058;-67
2022/09/05 19:17:14;;;;;;;9.68;7.30;;;;;;;18.88;84.27;101859.59;10525939;28;20467;-67
2022/09/05 19:22:15;;;;;;;7.38;5.30;;;;;;;18.85;83.71;101862.81;10544057;28;20475;-67
2022/09/05 19:27:15;;;;;;;5.05;4.30;;;;;;;18.78;84.64;101859.31;10543245;28;20065;-67
2022/09/05 19:32:16;;;;;;;5.20;4.72;;;;;;;18.76;98.46;101861.44;10543060;28;20107;-67
2022/09/05 19:37:17;;;;;;;7.70;4.35;;;;;;;18.76;96.48;101854.06;10477321;28;20067;-69
2022/09/05 19:42:18;;;;;;;7.03;6.10;;;;;;;18.80;93.16;101847.03;10526292;28;20437;-70
2022/09/05 19:47:29;;;;;;;14.35;9.98;;;;;;;18.88;98.48;101854.09;10545161;28;20451;-70
2022/09/05 19:52:33;;;;;;;14.68;5.35;;;;;;;18.75;100.00;101848.78;10544473;28;20036;-71
2022/09/05 19:57:33;;;;;;;8.57;4.32;;;;;;;18.71;100.00;101853.84;10542361;28;20411;-69
2022/09/05 20:02:34;;;;;;;8.48;5.28;;;;;;;18.69;100.00;101827.72;10542427;28;20036;-68
2022/09/05 20:07:34;;;;;;;6.47;5.25;;;;;;;18.69;100.00;101817.56;10541787;28;20063;-68
2022/09/05 20:12:37;;;;;;;7.75;5.95;;;;;;;18.72;99.98;101789.72;10524474;28;20032;-68
2022/09/05 20:17:41;;;;;;;19.65;5.68;;;;;;;18.52;100.00;101783.59;10541221;28;20545;-68
2022/09/05 20:22:47;;;;;;;12.27;6.80;;;;;;;18.45;100.00;101769.13;10541677;28;20387;-69
2022/09/05 20:27:48;;;;;;;11.90;7.17;;;;;;;18.51;100.00;101755.34;10523806;28;20232;-70
2022/09/05 20:32:52;;;;;;;8.10;5.13;;;;;;;18.36;100.00;101746.66;10541568;28;20024;-71
2022/09/05 20:37:52;;;;;;;6.85;5.03;;;;;;;18.19;100.00;101732.72;10524103;28;20024;-69
2022/09/05 20:42:53;;;;;;;6.53;5.65;;;;;;;18.30;100.00;101742.91;10523578;28;20032;-69
2022/09/05 20:47:53;;;;;;;5.28;4.78;;;;;;;18.07;100.00;101738.13;10541304;28;20044;-68
2022/09/05 20:52:58;;;;;;;6.63;4.88;;;;;;;18.06;100.00;101769.34;10539698;28;20039;-68
2022/09/05 20:58:12;;;;;;;4.28;3.90;;;;;;;18.08;100.00;101769.09;10556254;28;20056;-69
2022/09/05 21:03:27;;;;;;;3.47;3.17;;;;;;;17.92;100.00;101770.50;10540163;28;20150;-68
2022/09/05 21:08:32;;;;;;;7.25;3.10;;;;;;;17.81;100.00;101760.31;10540459;28;20028;-68
2022/09/05 21:13:40;;;;;;;7.38;3.22;;;;;;;17.74;100.00;101752.13;10540284;28;20364;-69
2022/09/05 21:18:42;;;;;;;3.45;2.78;;;;;;;17.62;100.00;101745.69;10505514;28;20028;-68
2022/09/05 21:23:42;;;;;;;4.78;2.90;;;;;;;17.59;100.00;101730.53;10538418;28;20051;-70
2022/09/05 21:28:42;;;;;;;3.17;2.55;;;;;;;17.47;100.00;101715.88;10538613;28;20129;-70
2022/09/05 21:33:43;;;;;;;3.05;2.25;;;;;;;17.36;100.00;101702.94;10504574;28;20031;-71
2022/09/05 21:38:44;;;;;;;2.90;2.53;;;;;;;17.35;100.00;101688.38;10521463;28;20028;-71
2022/09/05 21:43:44;;;;;;;9.80;2.75;;;;;;;17.35;100.00;101682.91;10539191;28;20498;-71
2022/09/05 21:48:45;;;;;;;3.45;2.42;;;;;;;17.32;100.00;101679.78;10539364;28;20100;-71
2022/09/05 21:53:47;;;;;;;2.60;2.22;;;;;;;17.23;100.00;101657.34;10538611;28;20495;-71
2022/09/05 21:58:51;;;;;;;2.88;2.67;;;;;;;17.23;100.00;101653.75;10521155;28;20035;-70
2022/09/05 22:03:57;;;;;;;2.42;2.22;;;;;;;17.19;100.00;101618.59;10539045;28;20032;-70
2022/09/05 22:08:57;;;;;;;2.40;2.23;;;;;;;17.14;100.00;101582.88;10521523;28;20426;-71
2022/09/05 22:13:58;;;;;;;2.30;2.20;;;;;;;17.06;100.00;101519.38;10522305;28;20086;-70
2022/09/05 22:18:59;;;;;;;1.58;1.48;;;;;;;17.09;100.00;101519.75;10545117;28;20044;-70
2022/09/05 22:24:05;;;;;;;3.15;2.30;;;;;;;17.16;100.00;101541.59;10546612;28;20035;-72
2022/09/05 22:29:05;;;;;;;2.28;2.08;;;;;;;17.26;100.00;101554.75;10547390;28;20112;-71
2022/09/05 22:34:06;;;;;;;1.83;1.73;;;;;;;17.27;100.00;101546.34;10548866;28;20111;-73
2022/09/05 22:39:06;;;;;;;4.65;1.63;;;;;;;17.23;100.00;101534.16;10552597;28;20043;-73
2022/09/05 22:44:06;;;;;;;2.78;1.95;;;;;;;17.30;100.00;101526.72;10550693;28;20190;-73
2022/09/05 22:49:07;;;;;;;2.22;2.03;;;;;;;17.38;100.00;101537.34;10548796;28;20518;-73
2022/09/05 22:54:07;;;;;;;6.30;1.80;;;;;;;17.38;100.00;101526.41;10548617;28;20047;-73
2022/09/05 22:59:13;;;;;;;1.23;1.23;;;;;;;17.34;100.00;101518.88;10547662;28;20506;-74
2022/09/05 23:04:13;;;;;;;1.73;1.63;;;;;;;17.31;100.00;101516.59;10548182;28;20115;-74
2022/09/05 23:09:14;;;;;;;1.50;1.40;;;;;;;17.30;100.00;101515.78;10548292;28;20036;-74
2022/09/05 23:14:14;;;;;;;1.17;1.17;;;;;;;17.38;100.00;101529.13;10548293;28;20067;-75
2022/09/05 23:19:15;;;;;;;1.17;1.17;;;;;;;17.44;100.00;101514.53;10529983;28;20471;-74
2022/09/05 23:24:15;;;;;;;1.88;1.63;;;;;;;17.46;100.00;101511.59;10547956;28;20064;-75
2022/09/05 23:29:15;;;;;;;1.80;1.38;;;;;;;17.56;100.00;101511.06;10547059;28;20097;-75
2022/09/05 23:34:16;;;;;;;1.27;1.27;;;;;;;17.52;100.00;101521.63;10546820;28;20116;-75
2022/09/05 23:39:16;;;;;;;2.65;1.98;;;;;;;17.58;100.00;101508.91;10549087;28;20115;-76
2022/09/05 23:44:17;;;;;;;1.50;1.40;;;;;;;17.67;100.00;101535.75;10546785;28;20039;-75
2022/09/05 23:49:17;;;;;;;8.52;1.83;;;;;;;17.72;100.00;101551.53;10546395;28;20462;-75
2022/09/05 23:54:17;;;;;;;2.25;1.40;;;;;;;17.72;100.00;101570.69;10543980;28;20176;-75
2022/09/05 23:59:18;;;;;;;1.83;1.73;;;;;;;17.72;100.00;101572.59;10546140;28;20467;-74
